LIBR/BDS METAR and TAF weather

Enter ICAO airport designator
Station Type Date Time Source
LIBR METAR 2019/10/19 06:50 UTC NOAA

LIBR 190650Z 21003KT 170V230 8000 NSC 17/16 Q1019


Station Type Date Time Source
LIBR Decoded METAR 2019/10/19 06:50 UTC NOAA

Brindisi, Italy (LIBR) 40-39N 017-57E 10M
Oct 19, 2019 - 02:50 AM EDT / 2019.10.19 0650 UTC
Wind: from the SSW (210 degrees) at 3 MPH (3 KT) (direction variable):0
Visibility: 4 mile(s):0
Temperature: 62 F (17 C)
Dew Point: 60 F (16 C)
Relative Humidity: 93%
Pressure (altimeter): 30.09 in. Hg (1019 hPa)
ob: LIBR 190650Z 21003KT 170V230 8000 NSC 17/16 Q1019
cycle: 7

Station Type Date Time Source
LIBR TAF 2019/10/19 06:21 UTC NOAA

TAF LIBR 190500Z 1906/2006 VRB05KT 9999 SCT030
BECMG 1910/1912 11010KT
BECMG 1916/1918 VRB05KT

Example: see airport list